Time;durP1;ratioP1;P1;durP2;ratioP2;P2;SDS_P1;SDS_P2;PMS_P1;PMS_P2;Temp;Humidity;BMP_temperature;BMP_pressure;BME280_temperature;BME280_humidity;BME280_pressure;Samples;Min_cycle;Max_cycle;Signal;HPM_P1;HPM_P2
2023/06/17 00:00:22;;;;;;;7.77;7.07;;;17.10;99.90;;;;;;5106566;28;20203;-56
2023/06/17 00:02:49;;;;;;;8.37;7.43;;;17.10;99.90;;;;;;5110572;28;20264;-56
2023/06/17 00:05:16;;;;;;;10.43;7.43;;;17.10;99.90;;;;;;5112459;28;20215;-56
2023/06/17 00:07:45;;;;;;;8.00;7.37;;;17.10;99.90;;;;;;5103890;28;20224;-56
2023/06/17 00:10:12;;;;;;;6.60;6.17;;;17.10;99.90;;;;;;5096125;28;20616;-56
2023/06/17 00:12:39;;;;;;;8.17;7.47;;;17.10;99.90;;;;;;5105834;28;20738;-56
2023/06/17 00:15:07;;;;;;;8.43;7.73;;;17.10;99.90;;;;;;5102777;28;20251;-56
2023/06/17 00:17:34;;;;;;;8.33;7.53;;;17.10;99.90;;;;;;5106899;28;20288;-56
2023/06/17 00:20:07;;;;;;;8.73;8.00;;;17.00;99.90;;;;;;5098098;28;20204;-55
2023/06/17 00:22:34;;;;;;;9.00;8.30;;;16.90;99.90;;;;;;5097685;28;20199;-56
2023/06/17 00:25:03;;;;;;;7.17;6.57;;;16.90;99.90;;;;;;5105012;28;20300;-56
2023/06/17 00:27:30;;;;;;;7.97;7.43;;;16.80;99.90;;;;;;5106008;28;20249;-56
2023/06/17 00:29:59;;;;;;;7.57;6.83;;;16.80;99.90;;;;;;5104179;28;20200;-56
2023/06/17 00:32:27;;;;;;;8.37;7.23;;;16.80;99.90;;;;;;5099911;28;20452;-56
2023/06/17 00:34:55;;;;;;;7.57;6.83;;;16.70;99.90;;;;;;5110349;28;20216;-56
2023/06/17 00:37:23;;;;;;;7.23;6.73;;;16.70;99.90;;;;;;5105505;28;20306;-56
2023/06/17 00:39:50;;;;;;;8.47;7.77;;;16.70;99.90;;;;;;5100009;28;20200;-55
2023/06/17 00:42:19;;;;;;;7.73;6.77;;;16.70;99.90;;;;;;5109184;28;20671;-56
2023/06/17 00:44:46;;;;;;;6.77;6.30;;;16.60;99.90;;;;;;5108781;28;20216;-56
2023/06/17 00:47:14;;;;;;;7.60;6.97;;;16.60;99.90;;;;;;5102646;28;20248;-56
2023/06/17 00:49:42;;;;;;;8.13;7.53;;;16.60;99.90;;;;;;5111186;28;20260;-55
2023/06/17 00:52:11;;;;;;;7.37;6.87;;;16.60;99.90;;;;;;5091589;28;20216;-56
2023/06/17 00:54:39;;;;;;;8.40;7.70;;;16.60;99.90;;;;;;5097903;28;20250;-56
2023/06/17 00:57:09;;;;;;;7.03;6.47;;;16.60;99.90;;;;;;5107685;28;20201;-55
2023/06/17 00:59:39;;;;;;;8.30;7.50;;;16.50;99.90;;;;;;5107634;28;20212;-56
2023/06/17 01:02:09;;;;;;;7.37;6.77;;;16.50;99.90;;;;;;5107877;28;20195;-55
2023/06/17 01:04:37;;;;;;;7.70;6.97;;;16.50;99.90;;;;;;5109422;28;20298;-55
2023/06/17 01:07:12;;;;;;;7.27;6.67;;;16.50;99.90;;;;;;5098129;28;20321;-56
2023/06/17 01:09:46;;;;;;;7.27;6.57;;;16.50;99.90;;;;;;5107108;28;20288;-56
2023/06/17 01:12:15;;;;;;;7.23;6.60;;;16.50;99.90;;;;;;5101636;28;20196;-56
2023/06/17 01:14:49;;;;;;;6.97;6.27;;;16.50;99.90;;;;;;5100610;28;20216;-55
2023/06/17 01:17:21;;;;;;;6.67;6.17;;;16.50;99.90;;;;;;5109968;28;20660;-55
2023/06/17 01:19:48;;;;;;;8.17;7.50;;;16.40;99.90;;;;;;5102670;28;20689;-56
2023/06/17 01:22:20;;;;;;;7.73;7.03;;;16.40;99.90;;;;;;5111487;28;20200;-56
2023/06/17 01:24:50;;;;;;;7.30;6.67;;;16.40;99.90;;;;;;5109952;28;20231;-55
2023/06/17 01:27:23;;;;;;;7.63;6.93;;;16.30;99.90;;;;;;5104617;28;20208;-56
2023/06/17 01:29:53;;;;;;;7.07;6.47;;;16.30;99.90;;;;;;5108038;28;20200;-56
2023/06/17 01:32:21;;;;;;;7.07;6.33;;;16.30;99.90;;;;;;5100984;28;20287;-56
2023/06/17 01:34:56;;;;;;;7.87;7.17;;;16.30;99.90;;;;;;5098161;28;20273;-55
2023/06/17 01:37:29;;;;;;;8.10;7.27;;;16.40;99.90;;;;;;5110726;28;20299;-56
2023/06/17 01:40:01;;;;;;;7.70;6.97;;;16.30;99.90;;;;;;5101035;28;20280;-55
2023/06/17 01:42:32;;;;;;;8.00;7.40;;;16.30;99.90;;;;;;5104499;28;20289;-56
2023/06/17 01:45:03;;;;;;;7.13;6.60;;;16.30;99.90;;;;;;5110251;28;20836;-56
2023/06/17 01:47:30;;;;;;;7.07;6.53;;;16.30;99.90;;;;;;5111514;28;20242;-56
2023/06/17 01:49:59;;;;;;;7.17;6.57;;;16.20;99.90;;;;;;5111431;28;20669;-56
2023/06/17 01:52:26;;;;;;;7.90;7.23;;;16.10;99.90;;;;;;5105116;28;20239;-56
2023/06/17 01:54:54;;;;;;;7.53;6.83;;;16.10;99.90;;;;;;5098892;28;20231;-56
2023/06/17 01:57:25;;;;;;;7.97;7.27;;;16.00;99.90;;;;;;5091026;28;20196;-56
2023/06/17 01:59:53;;;;;;;7.13;6.53;;;16.00;99.90;;;;;;5106888;28;20303;-56
2023/06/17 02:02:22;;;;;;;7.70;7.10;;;16.00;99.90;;;;;;5111092;28;20199;-56
2023/06/17 02:04:50;;;;;;;7.90;7.10;;;15.90;99.90;;;;;;5109778;28;20284;-55
2023/06/17 02:07:25;;;;;;;7.57;6.97;;;15.90;99.90;;;;;;5107759;28;20253;-56
2023/06/17 02:09:52;;;;;;;8.33;7.63;;;15.80;99.90;;;;;;5103115;28;20203;-56
2023/06/17 02:12:23;;;;;;;7.93;7.33;;;15.80;99.90;;;;;;5090704;28;20266;-56
2023/06/17 02:14:50;;;;;;;9.60;8.00;;;15.70;99.90;;;;;;5090786;28;20266;-56
2023/06/17 02:17:20;;;;;;;8.63;7.93;;;15.70;99.90;;;;;;5102147;28;20204;-56
2023/06/17 02:19:47;;;;;;;8.67;8.00;;;15.70;99.90;;;;;;5110114;28;20291;-56
2023/06/17 02:22:14;;;;;;;9.43;8.47;;;15.60;99.90;;;;;;5102379;28;20265;-56
2023/06/17 02:24:42;;;;;;;8.80;8.20;;;15.60;99.90;;;;;;5102667;28;20220;-56
2023/06/17 02:27:09;;;;;;;9.87;8.77;;;15.50;99.90;;;;;;5107731;28;20204;-56
2023/06/17 02:29:37;;;;;;;10.13;8.37;;;15.50;99.90;;;;;;5105764;28;20196;-56
2023/06/17 02:32:05;;;;;;;8.30;7.63;;;15.40;99.90;;;;;;5110645;28;20200;-55
2023/06/17 02:34:33;;;;;;;8.30;7.50;;;15.40;99.90;;;;;;5113542;28;20220;-56
2023/06/17 02:37:00;;;;;;;9.03;8.30;;;15.40;99.90;;;;;;5111087;28;20200;-56
2023/06/17 02:39:27;;;;;;;8.40;7.80;;;15.40;99.90;;;;;;5102650;28;20258;-56
2023/06/17 02:41:54;;;;;;;9.33;8.57;;;15.40;99.90;;;;;;5094311;28;20200;-56
2023/06/17 02:44:21;;;;;;;9.43;7.73;;;15.40;99.90;;;;;;5106450;28;20273;-56
2023/06/17 02:46:49;;;;;;;8.73;8.03;;;15.40;99.90;;;;;;5109003;28;20756;-56
2023/06/17 02:49:16;;;;;;;9.50;8.50;;;15.40;99.90;;;;;;5108233;28;20266;-56
2023/06/17 02:51:43;;;;;;;9.10;8.20;;;15.30;99.90;;;;;;5109322;28;20204;-56
2023/06/17 02:54:11;;;;;;;8.10;7.50;;;15.40;99.90;;;;;;5114058;28;20227;-56
2023/06/17 02:56:38;;;;;;;8.07;7.40;;;15.40;99.90;;;;;;5105640;28;20240;-56
2023/06/17 02:59:08;;;;;;;8.73;7.70;;;15.30;99.90;;;;;;5112913;28;20774;-56
2023/06/17 03:01:39;;;;;;;7.67;7.17;;;15.40;99.90;;;;;;5105490;28;20195;-56
2023/06/17 03:04:08;;;;;;;8.20;7.60;;;15.40;99.90;;;;;;5112842;28;20719;-56
2023/06/17 03:06:35;;;;;;;7.23;6.63;;;15.40;99.90;;;;;;5102422;28;20291;-56
2023/06/17 03:09:03;;;;;;;8.77;7.90;;;15.30;99.90;;;;;;5104520;28;20224;-56
2023/06/17 03:11:30;;;;;;;10.33;9.23;;;15.30;99.90;;;;;;5108926;28;20212;-56
2023/06/17 03:13:57;;;;;;;9.00;8.23;;;15.30;99.90;;;;;;5093467;28;20270;-56
2023/06/17 03:16:24;;;;;;;10.77;9.63;;;15.30;99.90;;;;;;5098032;28;20240;-56
2023/06/17 03:18:52;;;;;;;8.93;8.07;;;15.20;99.90;;;;;;5104306;28;20212;-56
2023/06/17 03:21:20;;;;;;;10.80;9.13;;;15.20;99.90;;;;;;5105310;28;20196;-55
2023/06/17 03:23:48;;;;;;;8.83;8.13;;;15.20;99.90;;;;;;5105995;28;20200;-55
2023/06/17 03:26:16;;;;;;;9.47;8.77;;;15.20;99.90;;;;;;5105387;28;20199;-56
2023/06/17 03:28:43;;;;;;;9.43;8.70;;;15.20;99.90;;;;;;5109849;28;20198;-55
2023/06/17 03:31:10;;;;;;;10.80;9.90;;;15.10;99.90;;;;;;5110413;28;20220;-57
2023/06/17 03:33:37;;;;;;;10.27;9.37;;;15.00;99.90;;;;;;5112778;28;20254;-58
2023/06/17 03:36:04;;;;;;;9.83;8.50;;;15.00;99.90;;;;;;5112406;28;20200;-57
2023/06/17 03:38:33;;;;;;;8.93;8.07;;;15.00;99.90;;;;;;5103897;28;20212;-57
2023/06/17 03:41:00;;;;;;;8.30;7.57;;;15.00;99.90;;;;;;5111896;28;20268;-58
2023/06/17 03:43:27;;;;;;;8.40;7.60;;;15.00;99.90;;;;;;5110328;28;20196;-57
2023/06/17 03:45:53;;;;;;;8.83;8.03;;;15.00;99.90;;;;;;5104538;28;20212;-58
2023/06/17 03:48:20;;;;;;;8.27;7.67;;;15.10;99.90;;;;;;5113591;28;20199;-57
2023/06/17 03:50:48;;;;;;;9.17;8.37;;;15.10;99.90;;;;;;5113290;28;20204;-58
2023/06/17 03:53:15;;;;;;;10.43;8.77;;;15.00;99.90;;;;;;5105939;28;20196;-57
2023/06/17 03:55:43;;;;;;;9.73;8.93;;;15.00;99.90;;;;;;5100613;28;20232;-58
2023/06/17 03:58:14;;;;;;;9.50;8.73;;;15.10;99.90;;;;;;5112114;28;20258;-58
2023/06/17 04:00:42;;;;;;;10.43;9.43;;;15.10;99.90;;;;;;5111580;28;20231;-58
2023/06/17 04:03:10;;;;;;;9.10;8.30;;;15.20;99.90;;;;;;5113117;28;20199;-57
2023/06/17 04:05:38;;;;;;;9.53;8.53;;;15.10;99.90;;;;;;5111120;28;20733;-58
2023/06/17 04:08:06;;;;;;;8.63;7.83;;;15.20;99.90;;;;;;5107290;28;20203;-57
2023/06/17 04:10:33;;;;;;;9.37;8.57;;;15.20;99.90;;;;;;5105681;28;20199;-58
2023/06/17 04:13:01;;;;;;;9.20;8.43;;;15.30;99.90;;;;;;5111211;28;20680;-58
2023/06/17 04:15:28;;;;;;;9.13;8.47;;;15.30;99.90;;;;;;5112906;28;20778;-58
2023/06/17 04:17:55;;;;;;;9.03;8.17;;;15.30;99.90;;;;;;5109551;28;20200;-58
2023/06/17 04:20:25;;;;;;;8.43;7.63;;;15.30;99.90;;;;;;5106547;28;20708;-57
2023/06/17 04:22:52;;;;;;;8.97;7.53;;;15.30;99.90;;;;;;5112515;28;20199;-57
2023/06/17 04:25:20;;;;;;;10.47;9.47;;;15.50;99.90;;;;;;5111753;28;20264;-57
2023/06/17 04:27:48;;;;;;;8.70;8.00;;;15.50;99.90;;;;;;5104319;28;20200;-57
2023/06/17 04:30:17;;;;;;;10.37;9.23;;;15.60;99.90;;;;;;5105332;28;20192;-57
2023/06/17 04:32:44;;;;;;;8.23;7.47;;;15.70;99.90;;;;;;5109910;28;20253;-58
2023/06/17 04:35:12;;;;;;;8.63;7.93;;;15.80;99.90;;;;;;5102797;28;20700;-58
2023/06/17 04:37:40;;;;;;;10.47;9.23;;;15.90;99.90;;;;;;5110598;28;20617;-57
2023/06/17 04:40:12;;;;;;;9.13;8.23;;;15.90;99.90;;;;;;5112373;28;20236;-58
2023/06/17 04:42:40;;;;;;;9.83;8.57;;;15.90;99.90;;;;;;5109648;28;20200;-57
2023/06/17 04:45:09;;;;;;;9.30;8.13;;;16.00;99.90;;;;;;5094808;28;20211;-58
2023/06/17 04:47:37;;;;;;;8.90;8.07;;;16.10;99.90;;;;;;5112022;28;20200;-57
2023/06/17 04:50:05;;;;;;;10.20;7.77;;;16.20;99.90;;;;;;5108114;28;20242;-57
2023/06/17 04:52:32;;;;;;;8.43;7.87;;;16.20;99.90;;;;;;5107022;28;20223;-58
2023/06/17 04:54:59;;;;;;;10.10;7.63;;;16.40;99.90;;;;;;5102897;28;20323;-58
2023/06/17 04:57:26;;;;;;;9.17;8.10;;;16.50;99.90;;;;;;5102903;28;20200;-58
2023/06/17 04:59:53;;;;;;;11.13;8.83;;;16.70;99.90;;;;;;5103091;28;20845;-57
2023/06/17 05:02:23;;;;;;;8.87;8.17;;;16.70;99.90;;;;;;5110738;28;20241;-58
2023/06/17 05:04:51;;;;;;;9.13;8.33;;;16.80;99.90;;;;;;5101851;28;20260;-58
2023/06/17 05:07:20;;;;;;;8.73;7.83;;;16.90;99.90;;;;;;5107638;28;20196;-58
2023/06/17 05:09:46;;;;;;;9.47;8.57;;;17.10;99.90;;;;;;5106826;28;20257;-58
2023/06/17 05:12:13;;;;;;;8.07;7.47;;;17.30;99.90;;;;;;5099447;28;20252;-58
2023/06/17 05:14:41;;;;;;;8.93;8.07;;;17.50;99.90;;;;;;5107192;28;20223;-58
2023/06/17 05:17:08;;;;;;;8.60;7.97;;;17.80;99.90;;;;;;5107510;28;20192;-58
2023/06/17 05:19:35;;;;;;;8.30;7.63;;;18.30;99.90;;;;;;5097031;28;20224;-58
2023/06/17 05:22:03;;;;;;;8.40;7.57;;;18.80;99.90;;;;;;5101675;28;20200;-58
2023/06/17 05:24:30;;;;;;;9.70;8.33;;;19.20;99.90;;;;;;5102310;28;20219;-58
2023/06/17 05:26:57;;;;;;;8.10;7.30;;;19.70;99.90;;;;;;5109421;28;20714;-58
2023/06/17 05:29:24;;;;;;;8.00;7.30;;;20.00;99.90;;;;;;5105145;28;20197;-58
2023/06/17 05:31:51;;;;;;;7.97;7.27;;;20.70;99.90;;;;;;5100637;28;20678;-58
2023/06/17 05:34:18;;;;;;;9.67;7.20;;;21.50;99.90;;;;;;5106932;28;20223;-58
2023/06/17 05:36:45;;;;;;;7.50;6.90;;;22.10;99.90;;;;;;5110070;28;20200;-59
2023/06/17 05:39:13;;;;;;;8.03;6.67;;;22.70;99.90;;;;;;5110214;28;20223;-58
2023/06/17 05:41:40;;;;;;;8.43;7.57;;;23.00;99.90;;;;;;5103552;28;20196;-58
2023/06/17 05:44:07;;;;;;;7.43;6.73;;;23.30;99.90;;;;;;5096523;28;20219;-58
2023/06/17 05:46:34;;;;;;;6.70;6.20;;;23.60;99.90;;;;;;5105380;28;20204;-58
2023/06/17 05:49:01;;;;;;;7.00;6.50;;;23.90;99.90;;;;;;5105414;28;20223;-58
2023/06/17 05:51:28;;;;;;;10.47;6.97;;;24.30;99.90;;;;;;5103242;28;20246;-58
2023/06/17 05:53:55;;;;;;;8.30;7.50;;;24.20;99.30;;;;;;5109253;28;20223;-59
2023/06/17 05:56:24;;;;;;;7.90;7.23;;;24.40;98.90;;;;;;5104735;28;20723;-58
2023/06/17 05:58:51;;;;;;;8.40;7.50;;;24.90;99.70;;;;;;5101557;28;20200;-58
2023/06/17 06:01:18;;;;;;;7.27;6.70;;;24.60;98.90;;;;;;5096245;28;20216;-58
2023/06/17 06:03:45;;;;;;;8.00;7.10;;;24.80;97.70;;;;;;5110884;28;20248;-58
2023/06/17 06:06:12;;;;;;;6.70;6.33;;;25.10;97.60;;;;;;5111008;28;20211;-59
2023/06/17 06:08:39;;;;;;;7.80;7.10;;;25.40;97.40;;;;;;5114347;28;20208;-58
2023/06/17 06:11:06;;;;;;;7.67;6.87;;;25.40;97.50;;;;;;5109486;28;20213;-59
2023/06/17 06:13:34;;;;;;;7.23;6.23;;;25.40;96.10;;;;;;5106197;28;20278;-58
2023/06/17 06:16:01;;;;;;;7.17;6.53;;;25.90;96.60;;;;;;5108137;28;20675;-58
2023/06/17 06:18:29;;;;;;;7.67;6.93;;;25.50;94.50;;;;;;5096160;28;20238;-59
2023/06/17 06:20:56;;;;;;;7.30;6.70;;;25.80;95.00;;;;;;5106038;28;20719;-59
2023/06/17 06:23:23;;;;;;;6.70;6.10;;;25.90;94.80;;;;;;5103310;28;20608;-59
2023/06/17 06:25:50;;;;;;;7.83;7.23;;;26.10;95.40;;;;;;5094674;28;20216;-59
2023/06/17 06:28:17;;;;;;;7.10;6.50;;;26.50;94.90;;;;;;5100826;28;20192;-58
2023/06/17 06:30:47;;;;;;;7.23;6.60;;;26.60;95.00;;;;;;5115061;28;20200;-58
2023/06/17 06:33:14;;;;;;;6.37;6.03;;;26.90;95.40;;;;;;5113288;28;20204;-58
2023/06/17 06:35:40;;;;;;;11.27;6.67;;;27.20;93.80;;;;;;5106018;28;20272;-59
2023/06/17 06:38:07;;;;;;;8.53;7.13;;;27.10;93.70;;;;;;5113819;28;20252;-59
2023/06/17 06:40:34;;;;;;;6.88;6.32;;;27.50;93.20;;;;;;5105043;28;20220;-58
2023/06/17 06:43:01;;;;;;;7.50;6.83;;;27.30;93.60;;;;;;5112769;28;20196;-58
2023/06/17 06:45:28;;;;;;;6.18;5.60;;;27.50;92.20;;;;;;5114332;28;20283;-58
2023/06/17 06:47:57;;;;;;;6.72;6.38;;;28.00;92.70;;;;;;5112786;28;20252;-58
2023/06/17 06:50:24;;;;;;;8.60;7.93;;;28.10;92.20;;;;;;5105417;28;20729;-58
2023/06/17 06:52:52;;;;;;;5.43;5.03;;;28.10;90.70;;;;;;5109554;28;20200;-58
2023/06/17 06:55:19;;;;;;;7.30;6.05;;;28.10;91.10;;;;;;5100929;28;20220;-58
2023/06/17 06:57:46;;;;;;;9.25;6.05;;;28.20;90.90;;;;;;5108507;28;20673;-59
2023/06/17 07:00:14;;;;;;;7.05;6.55;;;28.50;91.30;;;;;;5114173;28;20222;-58
2023/06/17 07:02:41;;;;;;;6.78;6.30;;;28.80;91.30;;;;;;5114166;28;20216;-59
2023/06/17 07:05:10;;;;;;;6.80;6.05;;;28.40;88.40;;;;;;5109536;28;20761;-59
2023/06/17 07:07:37;;;;;;;7.30;6.75;;;28.80;90.90;;;;;;5106506;28;20200;-58
2023/06/17 07:10:05;;;;;;;7.70;7.03;;;28.80;90.00;;;;;;5112691;28;20192;-58
2023/06/17 07:12:32;;;;;;;7.22;6.63;;;28.50;89.70;;;;;;5106292;28;20662;-58
2023/06/17 07:14:59;;;;;;;6.32;5.93;;;28.80;89.60;;;;;;5103661;28;20220;-58
2023/06/17 07:17:26;;;;;;;6.47;6.07;;;28.90;87.10;;;;;;5103575;28;20196;-59
2023/06/17 07:19:55;;;;;;;7.13;6.30;;;29.40;89.10;;;;;;5106629;28;20693;-58
2023/06/17 07:22:26;;;;;;;7.10;6.68;;;29.80;90.20;;;;;;5113313;28;20199;-59
2023/06/17 07:24:53;;;;;;;11.65;6.78;;;29.80;86.80;;;;;;5105948;28;20220;-58
2023/06/17 07:27:26;;;;;;;7.35;6.93;;;30.00;85.70;;;;;;5095426;28;20254;-59
2023/06/17 07:29:55;;;;;;;7.05;6.55;;;30.10;88.70;;;;;;5113805;28;20188;-58
2023/06/17 07:32:22;;;;;;;6.38;5.82;;;30.30;85.60;;;;;;5113431;28;20214;-59
2023/06/17 07:34:50;;;;;;;7.97;7.15;;;30.20;84.00;;;;;;5107520;28;20276;-58
2023/06/17 07:37:21;;;;;;;6.28;5.97;;;30.70;86.30;;;;;;5101107;28;20249;-58
2023/06/17 07:39:49;;;;;;;8.10;7.45;;;30.50;81.10;;;;;;5104267;28;20226;-58
2023/06/17 07:42:17;;;;;;;8.63;6.32;;;30.40;82.10;;;;;;5092851;28;20200;-59
2023/06/17 07:44:45;;;;;;;6.93;6.50;;;30.20;84.60;;;;;;5093328;28;20297;-58
2023/06/17 07:47:12;;;;;;;7.40;6.90;;;30.00;81.90;;;;;;5093234;28;20204;-59
2023/06/17 07:49:39;;;;;;;7.05;6.47;;;30.00;83.40;;;;;;5111175;28;20199;-58
2023/06/17 07:52:07;;;;;;;6.65;6.20;;;30.60;84.10;;;;;;5113218;28;20200;-58
2023/06/17 07:54:35;;;;;;;14.10;7.53;;;30.80;89.60;;;;;;5104453;28;20745;-59
2023/06/17 07:57:04;;;;;;;7.40;6.90;;;31.10;87.80;;;;;;5102887;28;20300;-59
2023/06/17 07:59:31;;;;;;;7.40;6.78;;;30.80;85.00;;;;;;5107008;28;20238;-59
2023/06/17 08:01:58;;;;;;;7.40;6.78;;;30.80;85.70;;;;;;5096495;28;20220;-58
2023/06/17 08:04:26;;;;;;;7.45;6.90;;;31.30;86.10;;;;;;5108961;28;20215;-58
2023/06/17 08:06:53;;;;;;;7.07;6.55;;;31.90;82.10;;;;;;5102901;28;20204;-58
2023/06/17 08:09:20;;;;;;;6.65;6.10;;;32.20;84.50;;;;;;5100319;28;20204;-58
2023/06/17 08:11:47;;;;;;;6.25;5.95;;;32.20;81.50;;;;;;5107754;28;20583;-60
2023/06/17 08:14:16;;;;;;;6.53;5.95;;;32.30;82.80;;;;;;5110110;28;20227;-59
2023/06/17 08:16:44;;;;;;;8.60;6.88;;;32.30;76.90;;;;;;5105819;28;20326;-59
2023/06/17 08:19:11;;;;;;;8.50;6.70;;;32.30;81.50;;;;;;5108856;28;20196;-59
2023/06/17 08:21:38;;;;;;;6.15;5.85;;;32.40;76.20;;;;;;5100653;28;20220;-58
2023/06/17 08:24:24;;;;;;;6.97;6.35;;;31.80;78.20;;;;;;5108390;28;20644;-58
2023/06/17 08:26:52;;;;;;;7.95;7.35;;;31.80;78.80;;;;;;5105795;28;20504;-69
2023/06/17 08:29:21;;;;;;;7.28;6.57;;;31.60;78.90;;;;;;5102601;28;20203;-69
2023/06/17 08:31:49;;;;;;;7.22;6.82;;;31.80;81.10;;;;;;5099302;28;20199;-60
2023/06/17 08:34:16;;;;;;;7.55;6.90;;;32.20;80.10;;;;;;5098436;28;20596;-60
2023/06/17 08:36:45;;;;;;;7.20;6.53;;;32.00;79.60;;;;;;5102163;28;20200;-59
2023/06/17 08:39:12;;;;;;;6.28;5.85;;;32.10;73.80;;;;;;5101420;28;20204;-60
2023/06/17 08:41:41;;;;;;;7.45;7.03;;;32.60;79.80;;;;;;5109292;28;20242;-60
2023/06/17 08:44:09;;;;;;;7.32;6.15;;;33.10;79.60;;;;;;5111995;28;20289;-61
2023/06/17 08:46:38;;;;;;;6.72;6.22;;;32.80;76.90;;;;;;5110374;28;20219;-60
2023/06/17 08:49:07;;;;;;;8.10;7.32;;;32.60;78.80;;;;;;5105515;28;20250;-60
2023/06/17 08:51:35;;;;;;;6.32;5.82;;;32.70;74.90;;;;;;5106450;28;20746;-60
2023/06/17 08:54:03;;;;;;;6.55;6.25;;;32.80;71.80;;;;;;5102757;28;20314;-61
2023/06/17 08:56:30;;;;;;;7.30;6.75;;;33.00;72.20;;;;;;5112087;28;20199;-60
2023/06/17 08:58:57;;;;;;;7.47;6.97;;;33.10;73.70;;;;;;5111991;28;20199;-60
2023/06/17 09:01:27;;;;;;;6.82;6.32;;;32.50;73.70;;;;;;5106085;28;20285;-61
2023/06/17 09:03:56;;;;;;;7.70;6.20;;;32.50;70.00;;;;;;5104852;28;20233;-59
2023/06/17 09:06:25;;;;;;;7.07;6.72;;;32.40;74.40;;;;;;5109455;28;20219;-60
2023/06/17 09:08:54;;;;;;;6.85;6.28;;;32.20;72.20;;;;;;5112177;28;20204;-59
2023/06/17 09:11:23;;;;;;;6.72;6.13;;;32.50;73.20;;;;;;5111992;28;20661;-60
2023/06/17 09:13:52;;;;;;;6.68;6.10;;;33.00;70.40;;;;;;5110292;28;20272;-60
2023/06/17 09:16:19;;;;;;;7.05;6.65;;;33.40;70.40;;;;;;5101763;28;20269;-60
2023/06/17 09:18:46;;;;;;;7.70;7.00;;;32.70;67.30;;;;;;5109548;28;20211;-60
2023/06/17 09:21:17;;;;;;;7.07;6.55;;;33.20;75.20;;;;;;5099620;28;20705;-61
2023/06/17 09:23:53;;;;;;;9.45;6.78;;;33.00;72.20;;;;;;5107963;28;20246;-60
2023/06/17 09:26:20;;;;;;;7.22;6.72;;;33.70;65.80;;;;;;5105476;28;20229;-61
2023/06/17 09:28:47;;;;;;;7.35;6.82;;;33.90;70.60;;;;;;5110442;28;20740;-59
2023/06/17 09:31:14;;;;;;;7.70;7.07;;;34.30;68.90;;;;;;5091524;28;20596;-61
2023/06/17 09:33:45;;;;;;;8.38;7.43;;;33.90;67.40;;;;;;5090282;28;20437;-68
2023/06/17 09:36:12;;;;;;;7.35;6.20;;;32.50;68.60;;;;;;5103540;28;20290;-68
2023/06/17 09:38:42;;;;;;;6.50;6.00;;;32.80;69.60;;;;;;5110436;28;20703;-69
2023/06/17 09:41:14;;;;;;;6.22;5.93;;;33.40;67.10;;;;;;5110379;28;20208;-66
2023/06/17 09:43:41;;;;;;;7.15;6.75;;;34.00;73.60;;;;;;5107932;28;20195;-65
2023/06/17 09:46:10;;;;;;;6.63;6.22;;;34.40;74.20;;;;;;5094441;28;20221;-60
2023/06/17 09:48:38;;;;;;;6.85;6.38;;;33.90;67.90;;;;;;5110762;28;20550;-60
2023/06/17 09:51:09;;;;;;;6.63;6.13;;;34.10;69.40;;;;;;5099898;28;20203;-71
2023/06/17 09:53:37;;;;;;;6.32;5.90;;;34.20;65.00;;;;;;5101885;28;20228;-67
2023/06/17 09:56:10;;;;;;;6.35;5.90;;;34.10;66.20;;;;;;5110666;28;20203;-67
2023/06/17 09:58:39;;;;;;;6.07;5.60;;;34.20;61.40;;;;;;5111541;28;20235;-70
2023/06/17 10:01:07;;;;;;;6.88;6.38;;;34.00;61.00;;;;;;5107674;28;20596;-68
2023/06/17 10:03:36;;;;;;;6.88;6.38;;;33.20;65.50;;;;;;5105192;28;20318;-69
2023/06/17 10:06:08;;;;;;;5.82;5.53;;;33.40;70.60;;;;;;5099531;28;20227;-68
2023/06/17 10:08:37;;;;;;;6.70;6.30;;;32.60;60.10;;;;;;5094955;28;20670;-68
2023/06/17 10:11:06;;;;;;;7.03;6.70;;;32.90;66.00;;;;;;5090660;28;20207;-70
2023/06/17 10:13:37;;;;;;;7.28;6.68;;;32.90;73.60;;;;;;5100612;28;20724;-69
2023/06/17 10:16:06;;;;;;;5.72;5.32;;;32.70;75.40;;;;;;5110028;28;20675;-71
2023/06/17 10:18:36;;;;;;;7.30;6.80;;;33.00;69.90;;;;;;5103567;28;20222;-68
2023/06/17 10:21:06;;;;;;;6.07;5.72;;;32.70;66.30;;;;;;5110187;28;20261;-68
2023/06/17 10:23:36;;;;;;;6.28;5.88;;;32.90;66.40;;;;;;5102360;28;20262;-67
2023/06/17 10:26:07;;;;;;;7.38;6.65;;;32.90;70.30;;;;;;5102950;28;20204;-68
2023/06/17 10:28:45;;;;;;;6.93;6.32;;;32.40;70.80;;;;;;5109682;28;20669;-68
2023/06/17 10:31:30;;;;;;;7.70;5.53;;;32.80;73.40;;;;;;5110931;28;20626;-60
2023/06/17 10:34:01;;;;;;;5.68;5.28;;;33.10;63.90;;;;;;5105020;28;20302;-60
2023/06/17 10:36:29;;;;;;;6.97;6.47;;;32.80;66.40;;;;;;5103786;28;20199;-60
2023/06/17 10:38:57;;;;;;;6.90;5.82;;;32.70;66.40;;;;;;5099843;28;20197;-59
2023/06/17 10:41:53;;;;;;;6.22;5.82;;;32.40;64.80;;;;;;5102927;28;20235;-60
2023/06/17 10:44:43;;;;;;;6.40;5.93;;;32.60;64.50;;;;;;5106473;28;20219;-60
2023/06/17 10:47:21;;;;;;;6.43;5.95;;;33.00;59.70;;;;;;5098117;28;20215;-60
2023/06/17 10:49:49;;;;;;;6.38;5.97;;;32.80;60.90;;;;;;5105217;28;20196;-66
2023/06/17 10:52:21;;;;;;;6.00;5.57;;;32.90;60.30;;;;;;5102595;28;20271;-65
2023/06/17 10:54:52;;;;;;;6.22;5.72;;;32.80;58.30;;;;;;5094325;28;20224;-66
2023/06/17 10:57:33;;;;;;;5.57;5.28;;;32.60;53.30;;;;;;5105033;28;20287;-68
2023/06/17 11:00:06;;;;;;;5.63;5.22;;;31.60;58.10;;;;;;5111822;28;20249;-70
2023/06/17 11:02:33;;;;;;;5.53;5.22;;;31.20;55.10;;;;;;5106604;28;20230;-65
2023/06/17 11:05:01;;;;;;;5.20;4.80;;;31.00;53.90;;;;;;5113462;28;20265;-64
2023/06/17 11:07:28;;;;;;;5.25;4.95;;;31.20;54.10;;;;;;5093761;28;20547;-68
2023/06/17 11:09:55;;;;;;;5.00;4.57;;;31.20;52.40;;;;;;5104294;28;20269;-69
2023/06/17 11:12:23;;;;;;;4.68;4.38;;;30.70;51.00;;;;;;5106328;28;20246;-70
2023/06/17 11:14:51;;;;;;;4.93;4.72;;;30.50;53.60;;;;;;5104523;28;20804;-70
2023/06/17 11:17:21;;;;;;;5.15;4.70;;;30.50;53.50;;;;;;5113850;28;20582;-69
2023/06/17 11:19:48;;;;;;;5.20;4.90;;;30.50;56.00;;;;;;5109119;28;20206;-70
2023/06/17 11:22:18;;;;;;;4.97;4.50;;;30.40;55.30;;;;;;5113637;28;20547;-68
2023/06/17 11:24:46;;;;;;;5.75;5.40;;;30.50;51.00;;;;;;5111875;28;20230;-69
2023/06/17 11:27:21;;;;;;;4.85;4.45;;;30.30;52.90;;;;;;5111112;28;20192;-69
2023/06/17 11:29:48;;;;;;;4.97;4.63;;;30.10;55.20;;;;;;5102650;28;20192;-66
2023/06/17 11:32:22;;;;;;;6.93;4.07;;;29.50;57.70;;;;;;5104919;28;20578;-71
2023/06/17 11:34:51;;;;;;;3.97;3.88;;;29.20;56.80;;;;;;5112660;28;20706;-68
2023/06/17 11:37:22;;;;;;;4.75;4.45;;;29.40;54.00;;;;;;5113830;28;20199;-58
2023/06/17 11:39:49;;;;;;;4.43;4.18;;;29.20;55.60;;;;;;5113521;28;20188;-65
2023/06/17 11:42:17;;;;;;;5.07;4.68;;;29.00;56.30;;;;;;5095474;28;20239;-66
2023/06/17 11:44:44;;;;;;;4.53;4.18;;;29.20;55.50;;;;;;5103215;28;20357;-67
2023/06/17 11:47:11;;;;;;;4.78;4.38;;;29.30;56.20;;;;;;5103321;28;20230;-66
2023/06/17 11:49:42;;;;;;;4.63;4.30;;;29.50;55.70;;;;;;5108185;28;20245;-66
2023/06/17 11:52:09;;;;;;;4.82;4.45;;;29.20;56.10;;;;;;5103017;28;20287;-67
2023/06/17 11:54:45;;;;;;;4.30;4.10;;;29.10;56.50;;;;;;5100185;28;20732;-66
2023/06/17 11:57:17;;;;;;;4.85;4.55;;;29.10;56.70;;;;;;5107370;28;20689;-66
2023/06/17 11:59:44;;;;;;;5.40;4.90;;;29.10;55.50;;;;;;5110312;28;20385;-67
2023/06/17 12:02:12;;;;;;;4.25;3.97;;;28.90;59.00;;;;;;5102354;28;20215;-66
2023/06/17 12:04:44;;;;;;;4.57;4.28;;;28.80;57.10;;;;;;5102181;28;20220;-67
2023/06/17 12:07:11;;;;;;;5.18;4.68;;;28.40;56.30;;;;;;5104552;28;20211;-67
2023/06/17 12:09:38;;;;;;;4.45;4.15;;;28.40;56.80;;;;;;5111695;28;20268;-67
2023/06/17 12:12:10;;;;;;;4.50;4.25;;;28.40;57.70;;;;;;5100549;28;20249;-67
2023/06/17 12:14:38;;;;;;;4.45;4.35;;;28.20;57.90;;;;;;5105922;28;20251;-66
2023/06/17 12:17:09;;;;;;;5.40;5.05;;;28.20;58.10;;;;;;5100519;28;20208;-67
2023/06/17 12:19:37;;;;;;;5.53;5.00;;;28.30;57.60;;;;;;5103654;27;20621;-66
2023/06/17 12:22:12;;;;;;;5.40;4.97;;;28.30;58.00;;;;;;5110185;28;20261;-66
2023/06/17 12:24:40;;;;;;;4.93;4.50;;;28.20;60.00;;;;;;5098810;28;20276;-69
2023/06/17 12:27:10;;;;;;;4.82;4.63;;;28.10;61.60;;;;;;5107673;28;20201;-67
2023/06/17 12:29:37;;;;;;;4.82;4.43;;;28.20;59.70;;;;;;5106227;28;20200;-66
2023/06/17 12:32:05;;;;;;;5.53;5.00;;;28.20;64.50;;;;;;5106651;28;20196;-67
2023/06/17 12:34:32;;;;;;;4.30;4.05;;;28.20;60.10;;;;;;5102956;28;20223;-67
2023/06/17 12:37:00;;;;;;;5.03;4.57;;;28.10;59.00;;;;;;5104487;28;20199;-66
2023/06/17 12:39:30;;;;;;;6.53;4.93;;;28.20;60.60;;;;;;5109016;28;20570;-67
2023/06/17 12:41:58;;;;;;;5.18;4.80;;;27.90;58.80;;;;;;5108418;28;20264;-66
2023/06/17 12:44:25;;;;;;;4.38;4.07;;;27.90;62.40;;;;;;5103382;28;20220;-68
2023/06/17 12:46:54;;;;;;;4.70;4.40;;;27.80;59.50;;;;;;5100938;28;20693;-68
2023/06/17 12:49:21;;;;;;;4.80;4.35;;;27.70;60.70;;;;;;5107119;28;20200;-67
2023/06/17 12:51:47;;;;;;;5.10;4.63;;;27.80;58.10;;;;;;5095937;28;20197;-63